Terminal Aerodrome Forecast
Issued by NWS Blacksburg, VA

Home | Current Version | Previous Version | Text Only | Print | Product List | Glossary On
Versions: 1 2 3 4 5 6 7 8 9 10 11 12 13 14 15 16 17 18 19 20 21 22 23 24 25 26 27 28 29 30 31 32 33 34
000
FTUS41 KRNK 272325
TAFBLF
TAF
KBLF 272325Z 2800/2824 23007KT P6SM BKN045
      TEMPO 2800/2803 OVC030
     FM280700 00000KT P6SM SCT045
     FM280900 00000KT 3SM BR SCT030
     FM281300 00000KT P6SM FEW150
     FM281700 17006KT P6SM FEW130=

USA.gov is the U.S. government's official web portal to all federal, state and local government web resources and services.